Main page
METAR-TAF:

METAR-TAF

Airports :

Doncaster Sheffield Airport

Doncaster, England

latitude: 53-29N, longitude: 001-00W, elevation: 17 m

Current weather observation

The report was made 10 minutes ago, at 20:50 UTC
Wind 7 kt from the South
Temperature 16°C
Humidity 51%
Pressure 1007 hPa
Visibility 10 km or more
no clouds below 1500 m and no cumulonimbus

METAR: EGCN 252050Z 18007KT CAVOK 16/06 Q1007

Time: 22:00 (21:00 UTC)

Forecast

The report was made 2 hours and 45 minutes ago, at 18:15 UTC
Forecast valid from 25 at 18 UTC to 26 at 18 UTC
Wind 12 kt from the South
Visibility 10 km or more
Scattered clouds at a height of 4000 ft
Temporary
from 25 at 18 UTC to 25 at 20 UTC
Wind 20 kt from the South with gusts up to 30 kt
Temporary
from 26 at 06 UTC to 26 at 18 UTC
Wind 15 kt from the South/Southwest with gusts up to 25 kt

TAF: EGCN 251815Z 2518/2618 18012KT 9999 SCT040 TEMPO 2518/2520 19020G30KT TEMPO 2606/2618 20015G25KT

Weather observations and forecasts of more than 4000 airports (METAR and TAF reports).

The available stations are represented by yellow and red dots on the map.

Hover mouse over dot to see the name of the station.

Then click to see weather observations and forecasts.

To change the map : click on the green buttons with a black cross to zoom in, on the green button with a dash to zoom out, or on the green arrows for adjacent maps.


METAR-TAF: